createdAt,value
2019-06-07T00:03:57.668Z,43.40
2019-06-07T00:19:01.446Z,43.51
2019-06-07T00:34:05.038Z,43.97
2019-06-07T00:49:09.245Z,43.34
2019-06-07T01:04:13.252Z,43.42
2019-06-07T01:19:18.992Z,43.42
2019-06-07T01:34:26.800Z,43.56
2019-06-07T01:49:29.736Z,44.01
2019-06-07T02:04:33.714Z,44.54
2019-06-07T02:19:37.494Z,44.53
2019-06-07T02:34:41.041Z,44.59
2019-06-07T02:49:44.839Z,44.73
2019-06-07T03:04:48.612Z,44.76
2019-06-07T03:19:54.175Z,45.21
2019-06-07T03:34:57.764Z,45.59
2019-06-07T03:50:01.331Z,45.61
2019-06-07T04:05:06.594Z,47.46
2019-06-07T04:20:10.308Z,45.86
2019-06-07T04:35:14.148Z,46.03
2019-06-07T04:50:17.909Z,45.95
2019-06-07T05:05:21.518Z,45.88
2019-06-07T05:20:25.177Z,45.41
2019-06-07T05:35:28.754Z,45.78
2019-06-07T05:50:43.663Z,45.57
2019-06-07T06:05:42.166Z,44.87
2019-06-07T06:21:05.021Z,44.60
2019-06-07T06:35:49.413Z,44.30
2019-06-07T06:50:53.613Z,44.35
2019-06-07T07:06:00.107Z,44.06
2019-06-07T07:21:04.194Z,43.41
2019-06-07T07:36:28.079Z,43.90
2019-06-07T07:51:13.525Z,43.74
2019-06-07T08:06:17.081Z,44.00
2019-06-07T08:21:25.302Z,43.92
2019-06-07T08:36:41.468Z,44.21
2019-06-07T08:51:31.293Z,44.10
2019-06-07T09:07:02.453Z,44.35
2019-06-07T09:21:40.167Z,44.35
2019-06-07T09:36:43.734Z,44.06
2019-06-07T09:51:47.347Z,43.55
2019-06-07T10:06:50.980Z,43.73
2019-06-07T10:21:54.665Z,43.31
2019-06-07T10:36:58.265Z,43.16
2019-06-07T10:52:03.418Z,43.17
2019-06-07T11:07:08.208Z,42.98
2019-06-07T11:22:14.174Z,43.12
2019-06-07T11:37:20.647Z,43.18
2019-06-07T11:52:24.239Z,43.17
2019-06-07T12:07:28.126Z,43.20
2019-06-07T12:22:31.688Z,43.37
2019-06-07T12:37:43.670Z,43.39
2019-06-07T12:52:40.551Z,43.66
2019-06-07T13:07:44.117Z,44.09
2019-06-07T13:22:47.711Z,43.87
2019-06-07T13:37:51.288Z,43.84
2019-06-07T13:52:54.915Z,43.70
2019-06-07T14:07:58.546Z,43.60
2019-06-07T14:23:02.095Z,43.58
2019-06-07T14:38:05.681Z,43.27
2019-06-07T14:53:09.264Z,43.88
2019-06-07T15:08:12.825Z,43.58
2019-06-07T15:23:16.392Z,44.77
2019-06-07T15:38:19.939Z,44.70
2019-06-07T15:53:23.908Z,44.71
2019-06-07T16:08:29.878Z,44.32
2019-06-07T16:23:33.693Z,44.27
2019-06-07T16:38:38.057Z,44.03
2019-06-07T16:53:42.371Z,43.97
2019-06-07T17:08:46.378Z,45.29
2019-06-07T17:23:49.946Z,45.40
2019-06-07T17:38:53.504Z,45.42
2019-06-07T17:53:57.092Z,45.94
2019-06-07T18:09:00.794Z,47.27
2019-06-07T18:24:05.711Z,47.81
2019-06-07T18:39:10.185Z,48.53
2019-06-07T18:54:14.784Z,48.75
2019-06-07T19:09:18.517Z,48.69
2019-06-07T19:24:22.088Z,49.04
2019-06-07T19:39:26.256Z,49.17
2019-06-07T19:54:29.899Z,49.82
2019-06-07T20:09:33.510Z,49.64
2019-06-07T20:24:38.180Z,49.48
2019-06-07T20:39:41.933Z,49.51
2019-06-07T20:54:45.559Z,49.06
2019-06-07T21:09:49.138Z,49.21
2019-06-07T21:24:52.704Z,49.18
2019-06-07T21:39:56.425Z,49.44
2019-06-07T21:54:59.987Z,49.38
2019-06-07T22:10:05.921Z,49.60
2019-06-07T22:25:11.065Z,49.59
2019-06-07T22:40:15.073Z,49.99
2019-06-07T22:55:18.655Z,49.32
2019-06-07T23:10:22.398Z,50.24
2019-06-07T23:25:26.010Z,49.67
2019-06-07T23:40:29.846Z,50.38
2019-06-07T23:55:33.435Z,50.49
